Sonic Adventure (DX): Overall Rankings

Records: Times | Rings | Scores | Races | Bosses | Freestyle
Leaders: Times | Rings | Scores | Races | Bosses | Freestyle | Overall
Rank Player Percent Points Date
1 Sonicspeedruner 98.3% 281 08-31-16
2 Gamepro011 98.2% 297 08-31-16
3 DarkPolarNight 96.2% 630 08-31-16
4 Jawzun 93.5% 1086 08-31-16
5 Dashjump 92.1% 1320 08-31-16
6 DarkspinesSonic 90.3% 1621 08-31-16
7 Avento128bits 89.9% 1682 08-31-16
8 ike6252 89.8% 1701 08-31-16
9 F-Man 88.0% 2010 08-31-16
10 Coolfansonic 85.3% 2460 08-31-16
11 HyperSonic7701 84.7% 2558 08-31-16
12 yoshifan 82.9% 2854 08-31-16
13 frankoredstrato 82.6% 2904 08-31-16
14 TheRealShadnic 82.4% 2946 08-31-16
15 francisco 81.7% 3056 08-31-16
16 Marth 81.4% 3115 08-31-16
17 InferSaime 80.1% 3327 08-31-16
18 PfoSonic 79.7% 3405 08-31-16
19 Paragod 79.3% 3459 08-31-16
20 THC98 78.6% 3576 08-31-16
21 Stefan 76.0% 4016 08-31-16
22 RPGnutter 73.9% 4364 08-31-16
23 bertin 73.7% 4397 08-31-16
24 sonicam 71.7% 4747 08-31-16
25 drminus 70.4% 4961 08-31-16
26 xXMegaManXx 70.1% 5015 08-31-16
27 Combo 65.7% 5743 08-31-16
28 SkyLights 64.6% 5937 08-31-16
29 Diamond 62.5% 6289 08-31-16
30 Auriman1 60.5% 6611 08-31-16
31 GerbilSoft 60.5% 6626 08-31-16
32 OmegaDJ 60.4% 6629 08-31-16
33 magnum12 59.6% 6771 08-31-16
34 Thorn 57.5% 7119 08-31-16
35 P1 Pause 57.3% 7156 08-31-16
36 mike89 56.2% 7344 08-31-16
37 Dave Cramer 54.2% 7667 08-31-16
38 Groudon199 54.2% 7668 08-31-16
39 chainchumper 54.2% 7682 08-31-16
40 Parax 53.4% 7814 08-31-16
41 Shadow Jacky 53.2% 7842 08-31-16
42 Psymar 48.0% 8719 08-31-16
43 Arch 47.2% 8842 08-31-16
44 Chao_Fan 46.4% 8982 08-31-16
45 mauserman 45.4% 9149 08-31-16
46 Quartz 45.3% 9170 08-31-16
47 teamblackarms 44.5% 9305 08-31-16
48 Psyknux 43.4% 9479 08-31-16
49 James_Bertolli 43.3% 9497 08-31-16
50 NintenDan 43.0% 9552 08-31-16
51 Webber3000 42.6% 9629 08-31-16
52 Turbos 42.4% 9652 08-31-16
53 Cream147 42.0% 9727 08-31-16
54 Ring Rush 42.0% 9728 08-31-16
55 videogamemaster777 41.9% 9743 08-31-16
56 Siavash Tazari 41.6% 9785 08-31-16
57 Fr3nZy 41.5% 9805 08-31-16
58 buddychaos0415 41.1% 9868 08-31-16
59 SadisticMystic 40.3% 10003 08-31-16
60 eggFL 39.7% 10100 08-31-16
61 Redd 38.8% 10258 08-31-16
62 SB737 38.2% 10363 08-31-16
63 supersonic465 37.4% 10495 08-31-16
64 supersonicfan 37.1% 10548 08-31-16
65 FuzZerd 35.8% 10760 08-31-16
66 Aitamen 35.3% 10843 08-31-16
67 elecmouse101 35.0% 10892 08-31-16
68 danieldude 34.8% 10926 08-31-16
69 metanightmare22 33.8% 11102 08-31-16
70 Austinf 33.7% 11110 08-31-16
71 dabestgamer 33.4% 11170 08-31-16
72 Cyan Ryan 33.3% 11178 08-31-16
73 MiStEr_ShAoLiN 33.2% 11200 08-31-16
74 Andrea Ritsu 32.3% 11343 08-31-16
75 itsPersonnal 32.0% 11406 08-31-16
76 Cybrax 31.2% 11539 08-31-16
77 SilvertheAlmighty 31.1% 11545 08-31-16
78 VMU Player Banned 29.1% 11883 08-31-16
79 Staf 28.9% 11924 08-31-16
80 Nimrod 28.8% 11941 08-31-16
81 ethmar 28.6% 11977 08-31-16
82 Omega Rafael Santos 28.5% 11990 08-31-16
83 The T 28.4% 11995 08-31-16
84 EngiNerd 28.2% 12029 08-31-16
85 lordmetalsonic 27.7% 12123 08-31-16
86 welldooder64 27.1% 12225 08-31-16
87 Hipertails12 27.1% 12227 08-31-16
88 GreatStar 26.8% 12271 08-31-16
89 The Great Lord Mick 26.7% 12284 08-31-16
90 Sondow 26.7% 12290 08-31-16
91 LinksDarkArrows 26.5% 12318 08-31-16
92 Mastakirby 26.5% 12327 08-31-16
93 Skylace 25.5% 12497 08-31-16
94 Rolken 24.1% 12732 08-31-16
95 Kogen Player Banned 22.3% 13025 08-31-16
96 Xia 22.2% 13038 08-31-16
97 Spinballwizard 22.2% 13039 08-31-16
98 a_moustache 22.2% 13043 08-31-16
99 Twilisailor 21.8% 13114 08-31-16
100 f0rever_zer0 21.8% 13116 08-31-16
101 Cutiefox 21.6% 13152 08-31-16
102 Don 21.5% 13161 08-31-16
103 Game_Complete 21.4% 13176 08-31-16
104 Miles9999 21.3% 13191 08-31-16
105 andres430 20.9% 13256 08-31-16
106 Cruizer 20.7% 13298 08-31-16
107 iSonicKid2K 20.6% 13313 08-31-16
108 SADXTryHard 20.3% 13368 08-31-16
109 GarnetPrincess 19.9% 13436 08-31-16
110 AxlThunder 19.1% 13561 08-31-16
111 knuckles_sonic8 18.7% 13623 08-31-16
112 The Knuckles Chao 18.4% 13689 08-31-16
113 KinkyCadence 18.3% 13695 08-31-16
114 Team_Yoshi 18.0% 13747 08-31-16
115 Termon 17.9% 13760 08-31-16
116 LittleBigness 17.9% 13763 08-31-16
117 SonicWinDX 17.7% 13795 08-31-16
118 FoxBoy 17.7% 13803 08-31-16
119 Drakodan 17.0% 13923 08-31-16
120 Sonic Singularity 15.9% 14096 08-31-16
121 Pokemonmaster888 15.7% 14127 08-31-16
122 BigAL49 14.8% 14285 08-31-16
123 MPit08 14.6% 14317 08-31-16
123 SilverSonic 14.6% 14317 08-31-16
125 WeegeeZV 14.3% 14362 08-31-16
126 koinu93 14.1% 14397 08-31-16
127 Mo Player Banned 14.1% 14398 08-31-16
128 HyperSonic64 13.7% 14461 08-31-16
129 Cod4Scopes 13.7% 14462 08-31-16
130 booo95 13.6% 14485 08-31-16
131 Jerzia 13.5% 14510 08-31-16
132 paulie9990 13.3% 14530 08-31-16
133 Chawkk 13.3% 14532 08-31-16
134 SuperSonic101 13.1% 14575 08-31-16
135 Hunters13 13.1% 14576 08-31-16
136 Maxinfamily 13.0% 14592 08-31-16
137 Kanimayo_Jp 12.7% 14643 08-31-16
138 LilZero 12.7% 14644 08-31-16
139 BrokenArthritis 12.5% 14663 08-31-16
140 PsyBorg 12.4% 14687 08-31-16
141 Flying Fox 12.4% 14689 08-31-16
142 Therio 12.1% 14738 08-31-16
143 sonicspeed 12.0% 14758 08-31-16
144 douglas 11.8% 14784 08-31-16
145 Matt_TY 11.5% 14844 08-31-16
146 thewaytodawnnn 11.4% 14855 08-31-16
147 Cooljay 10.9% 14936 08-31-16
148 SuperBlitzCraig 10.8% 14963 08-31-16
149 joecoolgames 10.7% 14966 08-31-16
150 SeaWolf 10.7% 14972 08-31-16
151 videogamer1014 10.5% 15007 08-31-16
152 AC-Tygo 10.3% 15046 08-31-16
153 welshmoose05 10.2% 15057 08-31-16
154 OddCook 10.0% 15092 08-31-16
155 crazy1993 9.9% 15108 08-31-16
155 TFEC Headshot 9.9% 15108 08-31-16
157 Mcshuggets 9.7% 15139 08-31-16
158 niscool 9.4% 15189 08-31-16
159 imazor017 9.4% 15198 08-31-16
160 Mariobutch 9.2% 15222 08-31-16
161 nuckrieg 9.2% 15223 08-31-16
162 SonicAD 9.2% 15227 08-31-16
163 Shadowthegreat 9.1% 15245 08-31-16
163 SirTobbii 9.1% 15245 08-31-16
165 superjupi 9.0% 15250 08-31-16
166 sonamyfan666 8.7% 15303 08-31-16
167 iarebored 8.7% 15316 08-31-16
168 SaviourDC 8.6% 15328 08-31-16
169 SonicKnuckles 8.6% 15329 08-31-16
170 Werey 8.3% 15381 08-31-16
171 adf 8.2% 15387 08-31-16
172 Megaman EXE565 8.0% 15422 08-31-16
173 ArcticDragon 7.7% 15482 08-31-16
174 Platformer 7.6% 15493 08-31-16
175 timpkmn89 7.5% 15512 08-31-16
176 FocusSight64 7.3% 15536 08-31-16
177 Swift Hobo 7.3% 15538 08-31-16
178 wheatrich 7.3% 15544 08-31-16
179 Rickyman48 7.2% 15568 08-31-16
180 KitsuneYamaro 7.0% 15587 08-31-16
181 Triseena 6.8% 15625 08-31-16
182 SonataSpinDash 6.7% 15650 08-31-16
183 CyberShadow 6.5% 15670 08-31-16
184 dShadow 6.5% 15671 08-31-16
185 slade23 6.5% 15678 08-31-16
186 Starlight Sable 6.5% 15680 08-31-16
187 Destroyer121121 6.5% 15682 08-31-16
188 IsisDazs 6.4% 15702 08-31-16
189 BlankTH 6.2% 15735 08-31-16
190 Monkeh 6.0% 15759 08-31-16
191 Powerjohn25 5.9% 15784 08-31-16
192 SonicU260 5.8% 15787 08-31-16
193 Richied 5.8% 15791 08-31-16
194 DaDude 5.7% 15806 08-31-16
195 Vicklaw 5.6% 15820 08-31-16
196 sonicd5 5.6% 15830 08-31-16
196 Zip 5.6% 15830 08-31-16
198 ALundstrom10 5.2% 15894 08-31-16
199 tal39h 5.2% 15901 08-31-16
200 VeritasDL 5.1% 15904 08-31-16
201 Badlex727 5.1% 15907 08-31-16
202 Kirbymon30 5.1% 15912 08-31-16
203 soniccoloursunleashed 5.0% 15937 08-31-16
204 Drflash55 4.9% 15941 08-31-16
205 Bass 4.8% 15957 08-31-16
206 neaolas 4.7% 15972 08-31-16
207 Yish 4.7% 15980 08-31-16
208 zapp 4.6% 15988 08-31-16
209 superiorsonic 4.6% 15996 08-31-16
209 UninspiredUsername 4.6% 15996 08-31-16
211 Sonicsuperstar1 4.6% 16002 08-31-16
212 gamefreak1292 4.5% 16014 08-31-16
213 Chaos_Overlord 4.2% 16062 08-31-16
214 TakaRikka 4.1% 16083 08-31-16
215 Valfore 4.0% 16096 08-31-16
216 ShinigamiMachine 3.8% 16124 08-31-16
217 N 3.8% 16132 08-31-16
218 Regano1000 3.8% 16136 08-31-16
219 MK 3.6% 16158 08-31-16
220 Ace747 3.6% 16166 08-31-16
221 Illidan 3.2% 16232 08-31-16
222 HHNNBBHHN 3.2% 16235 08-31-16
223 Venick409 3.1% 16242 08-31-16
224 Brian_pso 3.1% 16245 08-31-16
224 nman36 3.1% 16245 08-31-16
226 Sithwarrior26 3.1% 16246 08-31-16
227 Egor305 3.0% 16269 08-31-16
228 ingx24 3.0% 16272 08-31-16
229 TheChaosEmeraIds 2.9% 16276 08-31-16
230 Nickson98 2.9% 16281 08-31-16
230 SkyBon 2.9% 16281 08-31-16
232 Fozer 2.8% 16295 08-31-16
233 FSSRandomvids 2.8% 16302 08-31-16
234 Colomb_30 2.8% 16303 08-31-16
235 dekki1234 2.7% 16309 08-31-16
236 Aiko 2.7% 16319 08-31-16
237 sonic29887 2.7% 16321 08-31-16
238 TheUltraBlur 2.6% 16325 08-31-16
239 1stKirbyever 2.6% 16329 08-31-16
240 TimTH 2.6% 16338 08-31-16
241 Th4tN1nj4Turtl3 2.4% 16368 08-31-16
242 Cort_pso 2.3% 16375 08-31-16
243 Doom-9 2.3% 16384 08-31-16
243 ieatatsonic 2.3% 16384 08-31-16
245 Mariosonic15 2.3% 16387 08-31-16
246 HermitHelmet 2.1% 16408 08-31-16
246 MStitomix 2.1% 16408 08-31-16
248 Artie 2.1% 16423 08-31-16
249 Got4n 2.0% 16424 08-31-16
250 SuperSonic71087 2.0% 16430 08-31-16
251 Jose_15 2.0% 16436 08-31-16
252 Questionguy555 1.9% 16441 08-31-16
253 SuperSonicfan9595 1.9% 16453 08-31-16
254 djmat 1.8% 16458 08-31-16
255 sonicandamy Player Banned 1.7% 16478 08-31-16
256 LancexExWx 1.7% 16485 08-31-16
257 Paixii 1.7% 16486 08-31-16
258 Heroes_Hater 1.7% 16489 08-31-16
258 son1cgu1tar 1.7% 16489 08-31-16
260 BallzeH 1.6% 16501 08-31-16
261 Mankster101 1.6% 16507 08-31-16
262 BecauseWarAnvil 1.5% 16509 08-31-16
263 Jamixesa 1.5% 16512 08-31-16
264 Crydio 1.5% 16521 08-31-16
265 Shanekilz 1.4% 16527 08-31-16
266 SpiritDragon1995 1.4% 16528 08-31-16
267 ReuelBrony 1.4% 16534 08-31-16
268 MarewBFN 1.4% 16541 08-31-16
269 stanski 1.3% 16542 08-31-16
270 Sonique Hedgehog 1.3% 16548 08-31-16
271 p0ker 1.3% 16555 08-31-16
272 Blue Infamy 1.2% 16558 08-31-16
273 ErrortheCucco 1.2% 16569 08-31-16
274 Rikum22 1.2% 16572 08-31-16
275 Arthas 1.1% 16575 08-31-16
276 sonic1001 1.1% 16581 08-31-16
277 AJSIV 1.1% 16586 08-31-16
278 syco1098 1.1% 16588 08-31-16
278 WingedInsignia 1.1% 16588 08-31-16
280 Sonic the Hedgehod16 1.1% 16591 08-31-16
281 Calfd 1.0% 16598 08-31-16
282 sonicfan9 1.0% 16599 08-31-16
283 BlackArmsShadow 0.9% 16609 08-31-16
284 themachoman202 0.9% 16612 08-31-16
285 shadowblast63 Player Banned 0.9% 16619 08-31-16
286 Greham Adelphis 0.9% 16621 08-31-16
287 Fivavoa 0.9% 16622 08-31-16
287 Mr. Jones 0.9% 16622 08-31-16
289 darkstarblaze 0.9% 16623 08-31-16
290 MastaToken 0.9% 16624 08-31-16
291 arcfx1985 0.9% 16625 08-31-16
292 Ben1502 0.8% 16626 08-31-16
293 ptorflaxendrosis 0.8% 16627 08-31-16
294 TommyeAsY 0.8% 16628 08-31-16
295 FlandreScarlet9999vr 0.8% 16632 08-31-16
296 Gvozdevik 0.8% 16633 08-31-16
297 Knuckles 0.8% 16635 08-31-16
297 Zeldocto 0.8% 16635 08-31-16
299 BeeAwwb 0.8% 16639 08-31-16
300 KaM Mark MaK 0.8% 16640 08-31-16
301 ShadouZaHejjihoggu 0.7% 16647 08-31-16
302 Sonic The Star 0.7% 16654 08-31-16
303 darkersupershadic 0.7% 16655 08-31-16
303 Sonic62 0.7% 16655 08-31-16
305 Sarger001 0.7% 16658 08-31-16
306 dragondragon18 0.6% 16660 08-31-16
307 Grady219 0.6% 16661 08-31-16
307 Sogeking 0.6% 16661 08-31-16
309 Shadygamerfreak 0.6% 16662 08-31-16
309 SonicK100 0.6% 16662 08-31-16
311 Jawaah 0.6% 16667 08-31-16
312 Antek 0.6% 16671 08-31-16
313 Klaus 0.6% 16673 08-31-16
314 SilverK 0.6% 16674 08-31-16
315 BioShadow 0.5% 16676 08-31-16
316 SpinDashMaster 0.5% 16681 08-31-16
317 Videogamer123 0.5% 16684 08-31-16
318 oTaiIilLsS 0.4% 16697 08-31-16
319 isaihtb11 0.4% 16698 08-31-16
320 OhNoes! 0.4% 16700 08-31-16
321 zaktu40 0.4% 16701 08-31-16
322 gaara1234 0.4% 16704 08-31-16
322 Mad Andy 0.4% 16704 08-31-16
322 S-MS32X-S 0.4% 16704 08-31-16
325 gamed00d 0.4% 16708 08-31-16
326 Mister_Slick 0.3% 16715 08-31-16
327 Sonic06Fan 0.3% 16718 08-31-16
328 Rush Hero 0.3% 16720 08-31-16
329 SonicMega167 0.3% 16725 08-31-16
330 Iwannabelink 0.2% 16726 08-31-16
331 sonknuck23 0.2% 16730 08-31-16
332 DanielTheFalcon 0.2% 16738 08-31-16
332 gamer1245 0.2% 16738 08-31-16
334 Burningskull123 0.1% 16744 08-31-16
335 Sonicontherun 0.1% 16755 08-31-16
336 Lil_Dude 0.1% 16759 08-31-16
337 antiwwe 0.0% 16761 08-31-16
338 Genuine Hedgehog 0.0% 16765 08-31-16
339 Cbwade15 0.0% 16766 08-31-16
340 Tyrouble 0.0% 16769 08-31-16
341 MegabombBlade 0.0% 16776 08-31-16
341 neji_hyuuga 0.0% 16776 08-31-16
341 Over 0.0% 16776 08-31-16
341 sdj6707 Player Banned 0.0% 16776 08-31-16
341 Tran Sonic Fan Player Banned 0.0% 16776 08-31-16

This page is using the New Data Table System. [FUTURE]

Game ID: 3 | Category ID: 10
Hits: 3,728 | Hits This Month: 16 | DB Calls: 23 | Mem Usage: 5.47 MB | Time: 0.15s | Printable

The Sonic Center v3.9 Hax in Progress
Copyright 2003-2011 by The Sonic Center Team.